createdAt,value
2023-05-21T00:00:07.199Z,13.32
2023-05-21T00:01:07.235Z,13.32
2023-05-21T00:02:07.131Z,13.33
2023-05-21T00:03:07.212Z,13.33
2023-05-21T00:04:07.136Z,13.34
2023-05-21T00:05:07.166Z,13.33
2023-05-21T00:06:07.129Z,13.31
2023-05-21T00:07:07.138Z,13.27
2023-05-21T00:08:07.051Z,13.25
2023-05-21T00:09:07.108Z,13.25
2023-05-21T00:10:07.022Z,13.25
2023-05-21T00:11:07.200Z,13.25
2023-05-21T00:12:07.027Z,13.25
2023-05-21T00:13:07.135Z,13.23
2023-05-21T00:14:06.969Z,13.21
2023-05-21T00:15:07.076Z,13.18
2023-05-21T00:16:06.958Z,13.17
2023-05-21T00:17:06.976Z,13.15
2023-05-21T00:18:07.095Z,13.13
2023-05-21T00:19:06.974Z,13.13
2023-05-21T00:20:06.926Z,13.12
2023-05-21T00:21:06.929Z,13.11
2023-05-21T00:22:06.874Z,13.11
2023-05-21T00:23:06.919Z,13.11
2023-05-21T00:24:06.856Z,13.11
2023-05-21T00:25:06.881Z,13.11
2023-05-21T00:26:06.807Z,13.11
2023-05-21T00:27:06.841Z,13.11
2023-05-21T00:28:06.779Z,13.14
2023-05-21T00:29:06.855Z,13.17
2023-05-21T00:30:06.754Z,13.18
2023-05-21T00:31:06.806Z,13.18
2023-05-21T00:32:06.784Z,13.17
2023-05-21T00:33:06.804Z,13.16
2023-05-21T00:34:06.736Z,13.13
2023-05-21T00:35:06.969Z,13.11
2023-05-21T00:36:06.749Z,13.09
2023-05-21T00:37:06.761Z,13.08
2023-05-21T00:38:06.640Z,13.07
2023-05-21T00:39:06.700Z,13.05
2023-05-21T00:40:06.608Z,13.05
2023-05-21T00:41:06.649Z,13.04
2023-05-21T00:42:06.602Z,13.02
2023-05-21T00:43:06.783Z,13.01
2023-05-21T00:44:06.559Z,13.00
2023-05-21T00:45:06.668Z,13.00
2023-05-21T00:46:06.733Z,12.99
2023-05-21T00:47:06.595Z,12.98
2023-05-21T00:48:06.620Z,12.99
2023-05-21T00:49:06.647Z,12.98
2023-05-21T00:50:06.468Z,12.97
2023-05-21T00:51:06.515Z,12.95
2023-05-21T00:52:06.483Z,12.95
2023-05-21T00:53:06.511Z,12.96
2023-05-21T00:54:06.421Z,12.95
2023-05-21T00:55:06.528Z,12.95
2023-05-21T00:56:06.382Z,12.95
2023-05-21T00:57:06.425Z,12.94
2023-05-21T00:58:06.379Z,12.91
2023-05-21T01:00:16.189Z,12.30
2023-05-21T01:01:16.124Z,12.30
2023-05-21T01:02:16.138Z,12.51
2023-05-21T01:03:16.116Z,12.61
2023-05-21T01:04:16.124Z,12.66
2023-05-21T01:05:16.010Z,12.67
2023-05-21T01:06:16.092Z,12.67
2023-05-21T01:07:15.991Z,12.66
2023-05-21T01:08:16.055Z,12.63
2023-05-21T01:09:16.024Z,12.62
2023-05-21T01:10:16.041Z,12.61
2023-05-21T01:11:15.943Z,12.58
2023-05-21T01:12:16.003Z,12.56
2023-05-21T01:13:15.914Z,12.54
2023-05-21T01:14:15.971Z,12.53
2023-05-21T01:15:15.909Z,12.51
2023-05-21T01:16:15.928Z,12.50
2023-05-21T01:17:15.985Z,12.49
2023-05-21T01:18:16.080Z,12.49
2023-05-21T01:19:15.886Z,12.48
2023-05-21T01:20:15.926Z,12.46
2023-05-21T01:21:15.885Z,12.44
2023-05-21T01:22:15.895Z,12.42
2023-05-21T01:23:15.785Z,12.41
2023-05-21T01:24:15.893Z,12.39
2023-05-21T01:25:15.754Z,12.38
2023-05-21T01:26:15.745Z,12.37
2023-05-21T01:27:15.742Z,12.35
2023-05-21T01:28:15.762Z,12.34
2023-05-21T01:29:15.703Z,12.35
2023-05-21T01:30:15.735Z,12.34
2023-05-21T01:31:15.702Z,12.33
2023-05-21T01:32:15.695Z,12.31
2023-05-21T01:33:15.731Z,12.29
2023-05-21T01:34:15.712Z,12.28
2023-05-21T01:35:15.638Z,12.27
2023-05-21T01:36:15.707Z,12.27
2023-05-21T01:37:15.588Z,12.27
2023-05-21T01:38:15.644Z,12.26
2023-05-21T01:39:15.566Z,12.25
2023-05-21T01:40:15.643Z,12.23
2023-05-21T01:41:15.534Z,12.22
2023-05-21T01:42:15.617Z,12.22
2023-05-21T01:43:15.516Z,12.22
2023-05-21T01:44:15.574Z,12.22
2023-05-21T01:45:15.500Z,12.21
2023-05-21T01:46:15.537Z,12.20
2023-05-21T01:47:15.474Z,12.21
2023-05-21T01:48:15.570Z,12.24
2023-05-21T01:49:15.429Z,12.27
2023-05-21T01:50:15.532Z,12.27
2023-05-21T01:51:15.435Z,12.27
2023-05-21T01:52:15.460Z,12.25
2023-05-21T01:53:15.482Z,12.23
2023-05-21T01:54:15.389Z,12.21
2023-05-21T01:55:15.367Z,12.19
2023-05-21T01:56:15.450Z,12.16
2023-05-21T01:57:15.326Z,12.14
2023-05-21T01:58:15.452Z,12.12
2023-05-21T01:59:15.367Z,12.12
2023-05-21T02:00:16.367Z,12.11
2023-05-21T02:01:15.275Z,12.11
2023-05-21T02:02:15.417Z,12.10
2023-05-21T02:03:15.345Z,12.09
2023-05-21T02:04:15.349Z,12.08
2023-05-21T02:05:15.232Z,12.07
2023-05-21T02:06:15.298Z,12.06
2023-05-21T02:07:15.190Z,12.07
2023-05-21T02:08:15.362Z,12.07
2023-05-21T02:09:15.154Z,12.07
2023-05-21T02:10:15.275Z,12.07
2023-05-21T02:11:15.168Z,12.06
2023-05-21T02:12:15.257Z,12.05
2023-05-21T02:13:15.105Z,12.04
2023-05-21T02:14:15.188Z,12.04
2023-05-21T02:15:15.124Z,12.03
2023-05-21T02:16:15.247Z,12.01
2023-05-21T02:17:15.057Z,11.99
2023-05-21T02:18:15.180Z,11.96
2023-05-21T02:19:15.184Z,11.93
2023-05-21T02:20:15.130Z,11.91
2023-05-21T02:21:15.018Z,11.91
2023-05-21T02:22:16.085Z,11.92
2023-05-21T02:23:15.000Z,11.92
2023-05-21T02:24:15.171Z,11.89
2023-05-21T02:25:15.094Z,11.87
2023-05-21T02:26:15.073Z,11.86
2023-05-21T02:27:14.964Z,11.84
2023-05-21T02:28:15.027Z,11.82
2023-05-21T02:29:14.924Z,11.81
2023-05-21T02:30:14.987Z,11.79
2023-05-21T02:31:14.889Z,11.78
2023-05-21T02:32:14.920Z,11.78
2023-05-21T02:33:14.855Z,11.78
2023-05-21T02:34:14.994Z,11.79
2023-05-21T02:35:14.842Z,11.79
2023-05-21T02:36:14.899Z,11.78
2023-05-21T02:37:14.788Z,11.77
2023-05-21T02:38:14.857Z,11.76
2023-05-21T02:39:14.787Z,11.77
2023-05-21T02:40:14.885Z,11.78
2023-05-21T02:41:14.750Z,11.79
2023-05-21T02:42:14.831Z,11.79
2023-05-21T02:43:16.151Z,11.79
2023-05-21T02:44:14.815Z,11.79
2023-05-21T02:45:14.693Z,11.77
2023-05-21T02:46:14.767Z,11.76
2023-05-21T02:47:14.694Z,11.74
2023-05-21T02:48:14.841Z,11.74
2023-05-21T02:49:14.653Z,11.74
2023-05-21T02:50:14.783Z,11.73
2023-05-21T02:51:14.624Z,11.71
2023-05-21T02:52:14.668Z,11.69
2023-05-21T02:53:14.598Z,11.67
2023-05-21T02:54:14.722Z,11.65
2023-05-21T02:55:14.564Z,11.62
2023-05-21T02:56:14.610Z,11.62
2023-05-21T02:57:14.533Z,11.60
2023-05-21T02:58:14.577Z,11.59
2023-05-21T02:59:14.497Z,11.57
2023-05-21T03:00:15.621Z,11.55
2023-05-21T03:01:14.486Z,11.53
2023-05-21T03:02:14.569Z,11.52
2023-05-21T03:03:14.510Z,11.51
2023-05-21T03:04:14.521Z,11.52
2023-05-21T03:05:14.428Z,11.53
2023-05-21T03:06:15.550Z,11.52
2023-05-21T03:07:14.564Z,11.51
2023-05-21T03:08:14.473Z,11.50
2023-05-21T03:09:14.384Z,11.49
2023-05-21T03:10:14.475Z,11.48
2023-05-21T03:11:14.366Z,11.49
2023-05-21T03:12:14.464Z,11.49
2023-05-21T03:13:14.371Z,11.52
2023-05-21T03:14:14.438Z,11.58
2023-05-21T03:15:14.316Z,11.61
2023-05-21T03:16:14.354Z,11.62
2023-05-21T03:17:14.304Z,11.62
2023-05-21T03:18:14.479Z,11.62
2023-05-21T03:19:14.346Z,11.60
2023-05-21T03:20:14.269Z,11.58
2023-05-21T03:21:14.267Z,11.55
2023-05-21T03:22:14.308Z,11.54
2023-05-21T03:23:16.379Z,11.54
2023-05-21T03:24:14.212Z,11.55
2023-05-21T03:25:14.192Z,11.56
2023-05-21T03:26:14.213Z,11.56
2023-05-21T03:27:14.148Z,11.56
2023-05-21T03:28:16.180Z,11.58
2023-05-21T03:29:14.152Z,11.60
2023-05-21T03:30:14.152Z,11.62
2023-05-21T03:31:14.081Z,11.64
2023-05-21T03:32:14.285Z,11.66
2023-05-21T03:33:14.095Z,11.69
2023-05-21T03:34:14.216Z,11.74
2023-05-21T03:35:14.097Z,11.77
2023-05-21T03:36:14.124Z,11.78
2023-05-21T03:37:14.018Z,11.78
2023-05-21T03:38:14.076Z,11.76
2023-05-21T03:39:14.010Z,11.74
2023-05-21T03:40:14.076Z,11.74
2023-05-21T03:41:13.953Z,11.73
2023-05-21T03:42:14.069Z,11.71
2023-05-21T03:43:13.918Z,11.69
2023-05-21T03:44:15.140Z,11.67
2023-05-21T03:45:13.887Z,11.66
2023-05-21T03:46:13.948Z,11.65
2023-05-21T03:47:13.890Z,11.64
2023-05-21T03:48:14.020Z,11.66
2023-05-21T03:49:13.853Z,11.67
2023-05-21T03:50:13.961Z,11.69
2023-05-21T03:51:13.822Z,11.70
2023-05-21T03:52:13.875Z,11.72
2023-05-21T03:53:13.800Z,11.73
2023-05-21T03:54:13.838Z,11.74
2023-05-21T03:55:13.782Z,11.75
2023-05-21T03:56:13.813Z,11.75
2023-05-21T03:57:13.798Z,11.75
2023-05-21T03:58:13.780Z,11.76
2023-05-21T03:59:13.736Z,11.76
2023-05-21T04:00:13.789Z,11.77
2023-05-21T04:01:13.712Z,11.78
2023-05-21T04:02:13.819Z,11.79
2023-05-21T04:03:13.760Z,11.80
2023-05-21T04:04:13.856Z,11.81
2023-05-21T04:05:13.645Z,11.81
2023-05-21T04:06:14.755Z,11.81
2023-05-21T04:07:13.614Z,11.81
2023-05-21T04:08:13.681Z,11.81
2023-05-21T04:09:13.612Z,11.83
2023-05-21T04:10:13.706Z,11.83
2023-05-21T04:11:13.556Z,11.85
2023-05-21T04:12:14.743Z,11.86
2023-05-21T04:13:13.551Z,11.90
2023-05-21T04:14:13.618Z,11.94
2023-05-21T04:15:13.485Z,11.97
2023-05-21T04:16:13.603Z,12.00
2023-05-21T04:17:13.501Z,12.01
2023-05-21T04:18:13.634Z,12.05
2023-05-21T04:19:13.586Z,12.07
2023-05-21T04:20:13.463Z,12.10
2023-05-21T04:21:13.418Z,12.13
2023-05-21T04:22:13.479Z,12.17
2023-05-21T04:23:13.401Z,12.21
2023-05-21T04:24:13.429Z,12.25
2023-05-21T04:25:13.374Z,12.28
2023-05-21T04:26:13.407Z,12.30
2023-05-21T04:27:13.353Z,12.33
2023-05-21T04:28:13.411Z,12.37
2023-05-21T04:29:13.324Z,12.40
2023-05-21T04:30:13.392Z,12.42
2023-05-21T04:31:13.351Z,12.45
2023-05-21T04:32:13.322Z,12.48
2023-05-21T04:33:13.265Z,12.49
2023-05-21T04:34:13.372Z,12.51
2023-05-21T04:35:13.261Z,12.53
2023-05-21T04:36:13.322Z,12.55
2023-05-21T04:37:13.259Z,12.57
2023-05-21T04:38:13.321Z,12.57
2023-05-21T04:39:13.316Z,12.58
2023-05-21T04:40:13.256Z,12.59
2023-05-21T04:41:13.197Z,12.60
2023-05-21T04:42:14.442Z,12.61
2023-05-21T04:43:13.168Z,12.62
2023-05-21T04:44:13.301Z,12.66
2023-05-21T04:45:13.161Z,12.68
2023-05-21T04:46:13.160Z,12.72
2023-05-21T04:47:13.174Z,12.76
2023-05-21T04:48:13.181Z,12.79
2023-05-21T04:49:13.079Z,12.81
2023-05-21T04:50:14.077Z,12.83
2023-05-21T04:51:13.133Z,12.86
2023-05-21T04:52:13.115Z,12.89
2023-05-21T04:53:13.214Z,12.91
2023-05-21T04:54:13.047Z,12.94
2023-05-21T04:55:12.962Z,12.98
2023-05-21T04:56:13.070Z,13.01
2023-05-21T04:57:13.001Z,13.07
2023-05-21T04:58:13.023Z,13.12
2023-05-21T04:59:12.975Z,13.17
2023-05-21T05:00:12.972Z,13.24
2023-05-21T05:01:12.933Z,13.34
2023-05-21T05:02:12.926Z,13.45
2023-05-21T05:03:12.997Z,13.56
2023-05-21T05:04:12.965Z,13.67
2023-05-21T05:05:12.873Z,13.75
2023-05-21T05:06:13.000Z,13.82
2023-05-21T05:07:12.885Z,13.87
2023-05-21T05:08:15.325Z,13.90
2023-05-21T05:09:12.778Z,13.93
2023-05-21T05:10:13.810Z,13.96
2023-05-21T05:11:12.775Z,14.01
2023-05-21T05:12:12.943Z,14.06
2023-05-21T05:13:12.776Z,14.09
2023-05-21T05:14:12.859Z,14.11
2023-05-21T05:15:12.707Z,14.10
2023-05-21T05:16:12.838Z,14.10
2023-05-21T05:17:12.682Z,14.07
2023-05-21T05:18:12.704Z,14.07
2023-05-21T05:19:12.717Z,14.08
2023-05-21T05:20:12.675Z,14.07
2023-05-21T05:21:12.614Z,14.08
2023-05-21T05:22:13.625Z,14.07
2023-05-21T05:23:12.599Z,14.06
2023-05-21T05:24:12.645Z,14.04
2023-05-21T05:25:12.620Z,14.01
2023-05-21T05:26:12.616Z,14.00
2023-05-21T05:27:12.533Z,13.98
2023-05-21T05:28:12.627Z,13.97
2023-05-21T05:29:12.551Z,13.97
2023-05-21T05:30:12.593Z,13.97
2023-05-21T05:31:12.531Z,14.00
2023-05-21T05:32:12.577Z,14.03
2023-05-21T05:33:12.493Z,14.08
2023-05-21T05:34:12.556Z,14.12
2023-05-21T05:35:12.461Z,14.16
2023-05-21T05:36:12.548Z,14.21
2023-05-21T05:37:12.415Z,14.26
2023-05-21T05:38:12.516Z,14.32
2023-05-21T05:39:12.390Z,14.38
2023-05-21T05:40:12.430Z,14.44
2023-05-21T05:41:12.355Z,14.49
2023-05-21T05:42:12.489Z,14.55
2023-05-21T05:43:12.339Z,14.59
2023-05-21T05:44:12.430Z,14.64
2023-05-21T05:45:12.315Z,14.69
2023-05-21T05:46:12.361Z,14.74
2023-05-21T05:47:12.252Z,14.77
2023-05-21T05:48:12.292Z,14.81
2023-05-21T05:49:12.241Z,14.86
2023-05-21T05:50:12.605Z,14.90
2023-05-21T05:51:12.204Z,14.94
2023-05-21T05:52:12.263Z,14.99
2023-05-21T05:53:12.206Z,15.01
2023-05-21T05:54:13.264Z,15.03
2023-05-21T05:55:12.244Z,15.04
2023-05-21T05:56:13.228Z,15.04
2023-05-21T05:57:12.142Z,15.06
2023-05-21T05:58:12.215Z,15.07
2023-05-21T05:59:12.119Z,15.10
2023-05-21T06:00:12.175Z,15.13
2023-05-21T06:01:12.098Z,15.17
2023-05-21T06:02:13.350Z,15.21
2023-05-21T06:03:12.246Z,15.26
2023-05-21T06:04:12.961Z,15.33
2023-05-21T06:05:12.030Z,15.41
2023-05-21T06:06:12.308Z,15.49
2023-05-21T06:07:12.005Z,15.55
2023-05-21T06:08:12.132Z,15.62
2023-05-21T06:09:11.966Z,15.69
2023-05-21T06:10:11.985Z,15.75
2023-05-21T06:11:11.956Z,15.82
2023-05-21T06:12:14.734Z,15.89
2023-05-21T06:13:11.914Z,15.94
2023-05-21T06:14:12.060Z,16.01
2023-05-21T06:15:11.985Z,16.06
2023-05-21T06:16:13.036Z,16.09
2023-05-21T06:17:11.864Z,16.12
2023-05-21T06:18:11.965Z,16.16
2023-05-21T06:19:11.911Z,16.22
2023-05-21T06:20:11.897Z,16.26
2023-05-21T06:21:11.815Z,16.31
2023-05-21T06:22:11.870Z,16.36
2023-05-21T06:23:11.799Z,16.41
2023-05-21T06:24:11.846Z,16.45
2023-05-21T06:25:11.792Z,16.48
2023-05-21T06:26:11.816Z,16.50
2023-05-21T06:27:11.752Z,16.54
2023-05-21T06:28:11.799Z,16.58
2023-05-21T06:29:13.053Z,16.63
2023-05-21T06:30:11.791Z,16.69
2023-05-21T06:31:11.690Z,16.72
2023-05-21T06:32:11.789Z,16.77
2023-05-21T06:33:11.782Z,16.82
2023-05-21T06:34:11.673Z,16.89
2023-05-21T06:35:11.635Z,16.96
2023-05-21T06:36:11.755Z,17.02
2023-05-21T06:37:11.602Z,17.07
2023-05-21T06:38:11.692Z,17.12
2023-05-21T06:39:11.567Z,17.17
2023-05-21T06:40:11.608Z,17.19
2023-05-21T06:41:11.566Z,17.21
2023-05-21T06:42:11.661Z,17.24
2023-05-21T06:43:11.508Z,17.28
2023-05-21T06:44:11.525Z,17.33
2023-05-21T06:45:11.568Z,17.37
2023-05-21T06:46:11.572Z,17.41
2023-05-21T06:47:11.523Z,17.45
2023-05-21T06:48:11.537Z,17.48
2023-05-21T06:49:13.451Z,17.51
2023-05-21T06:50:11.448Z,17.55
2023-05-21T06:51:11.403Z,17.61
2023-05-21T06:52:11.475Z,17.68
2023-05-21T06:53:11.369Z,17.76
2023-05-21T06:54:11.441Z,17.81
2023-05-21T06:55:11.351Z,17.86
2023-05-21T06:56:11.408Z,17.92
2023-05-21T06:57:11.332Z,17.97
2023-05-21T06:58:11.408Z,18.02
2023-05-21T06:59:11.302Z,18.07
2023-05-21T07:00:11.392Z,18.14
2023-05-21T07:01:11.296Z,18.19
2023-05-21T07:02:11.393Z,18.23
2023-05-21T07:03:11.379Z,18.30
2023-05-21T07:04:11.290Z,18.35
2023-05-21T07:05:11.280Z,18.42
2023-05-21T07:06:11.321Z,18.47
2023-05-21T07:07:11.374Z,18.51
2023-05-21T07:08:12.139Z,18.55
2023-05-21T07:09:11.159Z,18.56
2023-05-21T07:10:11.197Z,18.58
2023-05-21T07:11:11.129Z,18.60
2023-05-21T07:12:11.192Z,18.62
2023-05-21T07:13:11.109Z,18.63
2023-05-21T07:14:11.133Z,18.65
2023-05-21T07:15:11.083Z,18.68
2023-05-21T07:16:12.222Z,18.69
2023-05-21T07:17:11.326Z,18.71
2023-05-21T07:18:11.150Z,18.72
2023-05-21T07:19:11.059Z,18.72
2023-05-21T07:20:11.052Z,18.74
2023-05-21T07:21:11.028Z,18.77
2023-05-21T07:22:11.107Z,18.81
2023-05-21T07:23:11.085Z,18.83
2023-05-21T07:24:11.053Z,18.85
2023-05-21T07:25:10.954Z,18.87
2023-05-21T07:26:12.051Z,18.89
2023-05-21T07:27:24.637Z,18.91
2023-05-21T07:28:11.936Z,18.95
2023-05-21T07:29:10.939Z,18.99
2023-05-21T07:30:10.893Z,19.05
2023-05-21T07:31:10.946Z,19.11
2023-05-21T07:32:10.866Z,19.15
2023-05-21T07:33:11.017Z,19.19
2023-05-21T07:34:10.866Z,19.19
2023-05-21T07:35:10.865Z,19.19
2023-05-21T07:36:10.835Z,19.20
2023-05-21T07:37:10.890Z,19.22
2023-05-21T07:38:10.772Z,19.25
2023-05-21T07:39:10.780Z,19.28
2023-05-21T07:40:10.765Z,19.30
2023-05-21T07:41:10.792Z,19.32
2023-05-21T07:42:10.751Z,19.34
2023-05-21T07:43:10.840Z,19.36
2023-05-21T07:44:10.692Z,19.38
2023-05-21T07:45:10.729Z,19.39
2023-05-21T07:46:10.692Z,19.40
2023-05-21T07:47:11.790Z,19.42
2023-05-21T07:48:10.739Z,19.44
2023-05-21T07:49:10.648Z,19.45
2023-05-21T07:50:10.628Z,19.47
2023-05-21T07:51:10.680Z,19.48
2023-05-21T07:52:10.610Z,19.49
2023-05-21T07:53:10.750Z,19.50
2023-05-21T07:54:10.586Z,19.51
2023-05-21T07:55:10.615Z,19.51
2023-05-21T07:56:10.528Z,19.51
2023-05-21T07:57:10.658Z,19.52
2023-05-21T07:58:10.519Z,19.54
2023-05-21T07:59:12.745Z,19.55
2023-05-21T08:00:10.560Z,19.56
2023-05-21T08:01:10.591Z,19.58
2023-05-21T08:02:10.460Z,19.61
2023-05-21T08:03:10.665Z,19.63
2023-05-21T08:04:10.605Z,19.64
2023-05-21T08:05:10.654Z,19.64
2023-05-21T08:06:10.469Z,19.65
2023-05-21T08:07:10.675Z,19.67
2023-05-21T08:08:10.391Z,19.68
2023-05-21T08:09:10.399Z,19.70
2023-05-21T08:10:10.382Z,19.72
2023-05-21T08:11:10.418Z,19.71
2023-05-21T08:12:10.346Z,19.73
2023-05-21T08:13:10.458Z,19.73
2023-05-21T08:14:10.311Z,19.74
2023-05-21T08:15:10.341Z,19.76
2023-05-21T08:16:10.336Z,19.77
2023-05-21T08:17:10.365Z,19.77
2023-05-21T08:18:10.387Z,19.76
2023-05-21T08:19:10.294Z,19.75
2023-05-21T08:20:10.223Z,19.75
2023-05-21T08:21:10.281Z,19.76
2023-05-21T08:22:10.241Z,19.78
2023-05-21T08:23:12.322Z,19.80
2023-05-21T08:24:10.204Z,19.83
2023-05-21T08:25:11.235Z,19.87
2023-05-21T08:26:10.161Z,19.90
2023-05-21T08:27:10.245Z,19.92
2023-05-21T08:28:10.114Z,19.95
2023-05-21T08:29:10.142Z,19.97
2023-05-21T08:30:10.175Z,20.00
2023-05-21T08:31:10.160Z,20.05
2023-05-21T08:32:10.259Z,20.07
2023-05-21T08:33:10.201Z,20.08
2023-05-21T08:34:10.071Z,20.08
2023-05-21T08:35:10.088Z,20.10
2023-05-21T08:36:10.043Z,20.11
2023-05-21T08:37:10.103Z,20.12
2023-05-21T08:38:10.008Z,20.12
2023-05-21T08:39:10.001Z,20.10
2023-05-21T08:40:09.978Z,20.08
2023-05-21T08:41:10.048Z,20.05
2023-05-21T08:42:09.957Z,20.06
2023-05-21T08:43:10.028Z,20.08
2023-05-21T08:44:09.911Z,20.12
2023-05-21T08:45:09.952Z,20.12
2023-05-21T08:46:10.210Z,20.11
2023-05-21T08:47:09.983Z,20.11
2023-05-21T08:48:10.117Z,20.13
2023-05-21T08:49:10.145Z,20.14
2023-05-21T08:50:09.850Z,20.15
2023-05-21T08:51:09.918Z,20.17
2023-05-21T08:52:09.944Z,20.18
2023-05-21T08:53:19.770Z,20.18
2023-05-21T08:54:10.976Z,20.17
2023-05-21T08:55:09.809Z,20.16
2023-05-21T08:56:09.759Z,20.16
2023-05-21T08:57:09.825Z,20.19
2023-05-21T08:58:09.735Z,20.22
2023-05-21T08:59:09.755Z,20.23
2023-05-21T09:00:09.958Z,20.26
2023-05-21T09:01:09.764Z,20.28
2023-05-21T09:02:09.662Z,20.29
2023-05-21T09:03:09.802Z,20.32
2023-05-21T09:04:20.405Z,20.35
2023-05-21T09:05:10.665Z,20.38
2023-05-21T09:06:09.698Z,20.42
2023-05-21T09:07:09.619Z,20.44
2023-05-21T09:08:09.708Z,20.44
2023-05-21T09:09:09.598Z,20.44
2023-05-21T09:10:09.672Z,20.42
2023-05-21T09:11:09.885Z,20.41
2023-05-21T09:12:09.636Z,20.41
2023-05-21T09:13:09.548Z,20.41
2023-05-21T09:14:09.556Z,20.44
2023-05-21T09:15:09.504Z,20.49
2023-05-21T09:16:09.649Z,20.53
2023-05-21T09:17:09.604Z,20.57
2023-05-21T09:18:09.631Z,20.63
2023-05-21T09:19:09.531Z,20.67
2023-05-21T09:20:09.630Z,20.71
2023-05-21T09:21:09.460Z,20.73
2023-05-21T09:22:09.496Z,20.77
2023-05-21T09:23:09.437Z,20.79
2023-05-21T09:24:09.425Z,20.78
2023-05-21T09:25:09.373Z,20.76
2023-05-21T09:26:09.429Z,20.75
2023-05-21T09:27:09.350Z,20.73
2023-05-21T09:28:09.450Z,20.74
2023-05-21T09:29:09.350Z,20.73
2023-05-21T09:30:09.344Z,20.77
2023-05-21T09:31:09.370Z,20.80
2023-05-21T09:32:09.424Z,20.85
2023-05-21T09:33:09.315Z,20.90
2023-05-21T09:34:09.270Z,20.94
2023-05-21T09:35:09.261Z,20.98
2023-05-21T09:36:09.304Z,21.03
2023-05-21T09:37:16.793Z,21.10
2023-05-21T09:38:10.214Z,21.17
2023-05-21T09:39:09.214Z,21.24
2023-05-21T09:40:09.214Z,21.29
2023-05-21T09:41:09.293Z,21.32
2023-05-21T09:42:09.162Z,21.35
2023-05-21T09:43:09.147Z,21.39
2023-05-21T09:44:09.126Z,21.44
2023-05-21T09:45:09.121Z,21.50
2023-05-21T09:46:09.118Z,21.55
2023-05-21T09:47:09.123Z,21.61
2023-05-21T09:48:09.087Z,21.64
2023-05-21T09:49:09.163Z,21.69
2023-05-21T09:50:09.057Z,21.72
2023-05-21T09:51:09.122Z,21.74
2023-05-21T09:52:09.018Z,21.72
2023-05-21T09:53:09.030Z,21.68
2023-05-21T09:54:09.002Z,21.62
2023-05-21T09:55:09.028Z,21.58
2023-05-21T09:56:08.976Z,21.51
2023-05-21T09:57:08.966Z,21.44
2023-05-21T09:58:08.934Z,21.43
2023-05-21T09:59:09.003Z,21.44
2023-05-21T10:00:08.952Z,21.45
2023-05-21T10:01:08.994Z,21.46
2023-05-21T10:02:09.078Z,21.43
2023-05-21T10:03:09.036Z,21.44
2023-05-21T10:04:08.876Z,21.46
2023-05-21T10:05:08.973Z,21.45
2023-05-21T10:06:08.841Z,21.40
2023-05-21T10:07:08.903Z,21.38
2023-05-21T10:08:08.803Z,21.38
2023-05-21T10:09:08.839Z,21.39
2023-05-21T10:10:08.800Z,21.41
2023-05-21T10:11:08.909Z,21.40
2023-05-21T10:12:08.763Z,21.35
2023-05-21T10:13:09.778Z,21.31
2023-05-21T10:14:08.731Z,21.26
2023-05-21T10:15:08.822Z,21.20
2023-05-21T10:16:08.760Z,21.14
2023-05-21T10:17:08.865Z,21.08
2023-05-21T10:18:08.745Z,21.05
2023-05-21T10:19:08.748Z,21.03
2023-05-21T10:20:08.639Z,21.00
2023-05-21T10:21:08.730Z,21.08
2023-05-21T10:22:08.619Z,21.19
2023-05-21T10:23:11.955Z,21.29
2023-05-21T10:24:08.647Z,21.37
2023-05-21T10:25:08.634Z,21.38
2023-05-21T10:26:08.573Z,21.39
2023-05-21T10:27:08.682Z,21.38
2023-05-21T10:28:08.610Z,21.40
2023-05-21T10:29:08.574Z,21.38
2023-05-21T10:30:08.511Z,21.37
2023-05-21T10:31:08.568Z,21.34
2023-05-21T10:32:08.558Z,21.29
2023-05-21T10:33:08.591Z,21.22
2023-05-21T10:34:08.500Z,21.21
2023-05-21T10:35:09.570Z,21.18
2023-05-21T10:36:08.456Z,21.13
2023-05-21T10:37:08.521Z,21.06
2023-05-21T10:38:08.395Z,21.01
2023-05-21T10:39:08.432Z,20.96
2023-05-21T10:40:08.371Z,20.95
2023-05-21T10:41:08.503Z,20.92
2023-05-21T10:42:08.369Z,20.89
2023-05-21T10:43:08.382Z,20.86
2023-05-21T10:44:08.347Z,20.82
2023-05-21T10:45:08.448Z,20.78
2023-05-21T10:46:08.315Z,20.75
2023-05-21T10:47:08.420Z,20.72
2023-05-21T10:48:08.286Z,20.68
2023-05-21T10:49:08.305Z,20.70
2023-05-21T10:50:08.345Z,20.69
2023-05-21T10:51:10.461Z,20.67
2023-05-21T10:52:08.206Z,20.64
2023-05-21T10:53:10.688Z,20.62
2023-05-21T10:54:08.201Z,20.61
2023-05-21T10:55:08.265Z,20.60
2023-05-21T10:56:08.150Z,20.76
2023-05-21T10:57:08.249Z,20.88
2023-05-21T10:58:08.143Z,20.94
2023-05-21T10:59:08.209Z,20.94
2023-05-21T11:00:08.125Z,20.92
2023-05-21T11:01:08.220Z,20.95
2023-05-21T11:02:08.114Z,20.98
2023-05-21T11:03:08.204Z,21.09
2023-05-21T11:04:08.111Z,21.19
2023-05-21T11:05:08.200Z,21.23
2023-05-21T11:06:08.035Z,21.26
2023-05-21T11:07:08.132Z,21.25
2023-05-21T11:08:08.003Z,21.22
2023-05-21T11:09:29.042Z,21.20
2023-05-21T11:10:07.996Z,21.15
2023-05-21T11:11:07.986Z,21.09
2023-05-21T11:12:08.068Z,21.02
2023-05-21T11:13:07.970Z,20.95
2023-05-21T11:14:07.962Z,20.91
2023-05-21T11:15:07.917Z,20.89
2023-05-21T11:16:08.045Z,20.98
2023-05-21T11:17:07.998Z,21.02
2023-05-21T11:18:07.932Z,21.03
2023-05-21T11:19:07.949Z,21.01
2023-05-21T11:20:07.918Z,21.13
2023-05-21T11:21:07.885Z,21.31
2023-05-21T11:22:08.018Z,21.40
2023-05-21T11:23:07.847Z,21.43
2023-05-21T11:24:07.783Z,21.44
2023-05-21T11:25:07.776Z,21.56
2023-05-21T11:26:07.856Z,21.66
2023-05-21T11:27:07.755Z,21.79
2023-05-21T11:28:07.769Z,21.97
2023-05-21T11:29:07.756Z,22.04
2023-05-21T11:30:07.776Z,22.02
2023-05-21T11:31:07.725Z,22.02
2023-05-21T11:32:28.821Z,22.04
2023-05-21T11:33:07.796Z,22.04
2023-05-21T11:34:07.713Z,22.13
2023-05-21T11:35:07.672Z,22.23
2023-05-21T11:36:07.736Z,22.29
2023-05-21T11:37:07.641Z,22.25
2023-05-21T11:38:07.674Z,22.14
2023-05-21T11:39:07.625Z,22.03
2023-05-21T11:40:07.640Z,21.92
2023-05-21T11:41:07.621Z,21.82
2023-05-21T11:42:07.659Z,21.70
2023-05-21T11:43:07.571Z,21.58
2023-05-21T11:44:07.536Z,21.48
2023-05-21T11:45:07.533Z,21.43
2023-05-21T11:46:07.613Z,21.39
2023-05-21T11:47:07.523Z,21.50
2023-05-21T11:48:07.619Z,21.66
2023-05-21T11:49:07.479Z,21.75
2023-05-21T11:50:07.547Z,21.81
2023-05-21T11:51:07.447Z,21.80
2023-05-21T11:52:07.532Z,21.78
2023-05-21T11:53:07.428Z,21.78
2023-05-21T11:54:07.452Z,21.79
2023-05-21T11:55:07.457Z,21.81
2023-05-21T11:56:07.481Z,21.88
2023-05-21T11:57:07.388Z,21.89
2023-05-21T11:58:07.366Z,21.92
2023-05-21T11:59:07.355Z,21.96
2023-05-21T12:00:07.419Z,21.93
2023-05-21T12:01:07.334Z,21.89
2023-05-21T12:02:07.404Z,21.91
2023-05-21T12:03:07.409Z,21.86
2023-05-21T12:04:07.373Z,21.78
2023-05-21T12:05:07.308Z,21.68
2023-05-21T12:06:07.428Z,21.56
2023-05-21T12:07:07.287Z,21.69
2023-05-21T12:08:07.236Z,21.96
2023-05-21T12:09:07.241Z,22.06
2023-05-21T12:10:07.367Z,22.02
2023-05-21T12:11:07.217Z,21.95
2023-05-21T12:12:07.308Z,21.85
2023-05-21T12:13:07.300Z,21.79
2023-05-21T12:14:07.271Z,21.76
2023-05-21T12:15:07.143Z,21.98
2023-05-21T12:16:07.286Z,22.28
2023-05-21T12:17:07.175Z,22.66
2023-05-21T12:18:07.196Z,22.99
2023-05-21T12:19:07.118Z,23.17
2023-05-21T12:20:07.118Z,23.23
2023-05-21T12:21:07.054Z,23.12
2023-05-21T12:22:07.153Z,22.91
2023-05-21T12:23:07.073Z,22.71
2023-05-21T12:24:07.052Z,22.50
2023-05-21T12:25:07.020Z,22.31
2023-05-21T12:26:07.250Z,22.13
2023-05-21T12:27:06.970Z,21.98
2023-05-21T12:28:06.986Z,21.85
2023-05-21T12:29:06.993Z,21.77
2023-05-21T12:30:06.986Z,21.77
2023-05-21T12:31:06.944Z,21.72
2023-05-21T12:32:08.001Z,21.65
2023-05-21T12:33:06.982Z,21.59
2023-05-21T12:34:06.929Z,21.56
2023-05-21T12:35:06.928Z,21.52
2023-05-21T12:36:06.947Z,21.45
2023-05-21T12:37:06.854Z,21.38
2023-05-21T12:38:06.854Z,21.31
2023-05-21T12:39:06.861Z,21.25
2023-05-21T12:40:06.856Z,21.19
2023-05-21T12:41:06.860Z,21.13
2023-05-21T12:42:06.790Z,21.06
2023-05-21T12:43:06.776Z,21.01
2023-05-21T12:44:06.746Z,21.01
2023-05-21T12:45:06.841Z,21.06
2023-05-21T12:46:06.771Z,21.08
2023-05-21T12:47:06.760Z,21.09
2023-05-21T12:48:06.783Z,21.15
2023-05-21T12:49:06.714Z,21.17
2023-05-21T12:50:06.689Z,21.17
2023-05-21T12:51:06.747Z,21.26
2023-05-21T12:52:06.687Z,21.34
2023-05-21T12:53:06.725Z,21.43